Time;durP1;ratioP1;P1;durP2;ratioP2;P2;SDS_P1;SDS_P2;PMS_P1;PMS_P2;Temp;Humidity;BMP_temperature;BMP_pressure;BME280_temperature;BME280_humidity;BME280_pressure;Samples;Min_cycle;Max_cycle;Signal;HPM_P1;HPM_P2
2021/07/27 00:00:38;;;;;;;11.30;2.78;;;23.90;57.80;;;;;;4860733;29;20041;-58
2021/07/27 00:03:04;;;;;;;9.75;2.80;;;23.90;57.80;;;;;;4860498;29;20057;-59
2021/07/27 00:05:30;;;;;;;9.05;2.67;;;23.90;57.90;;;;;;4859302;29;20397;-58
2021/07/27 00:07:56;;;;;;;8.73;3.42;;;23.90;57.90;;;;;;4860622;29;20090;-59
2021/07/27 00:10:23;;;;;;;7.43;2.25;;;23.90;57.90;;;;;;4860584;29;20037;-59
2021/07/27 00:12:48;;;;;;;6.60;2.42;;;23.90;57.90;;;;;;4860587;29;20053;-60
2021/07/27 00:15:14;;;;;;;7.00;2.42;;;23.90;57.90;;;;;;4859278;29;20178;-59
2021/07/27 00:17:40;;;;;;;7.75;2.75;;;23.90;58.00;;;;;;4860615;29;20040;-59
2021/07/27 00:20:06;;;;;;;7.85;2.83;;;23.90;58.00;;;;;;4860500;29;20026;-58
2021/07/27 00:22:32;;;;;;;6.25;2.60;;;23.90;58.00;;;;;;4860669;29;20036;-58
2021/07/27 00:25:00;;;;;;;7.13;2.53;;;23.90;58.00;;;;;;4860458;29;20382;-60
2021/07/27 00:27:26;;;;;;;7.28;2.20;;;23.80;58.00;;;;;;4860428;29;20112;-60
2021/07/27 00:29:52;;;;;;;7.80;2.42;;;23.90;58.00;;;;;;4863184;29;20109;-60
2021/07/27 00:32:18;;;;;;;10.15;2.45;;;23.80;58.00;;;;;;4863966;29;20033;-58
2021/07/27 00:34:44;;;;;;;10.57;2.60;;;23.80;58.00;;;;;;4863862;29;20040;-60
2021/07/27 00:37:16;;;;;;;5.22;2.17;;;23.80;58.00;;;;;;4863955;29;20398;-61
2021/07/27 00:39:43;;;;;;;7.80;2.65;;;23.80;58.10;;;;;;4863935;29;20082;-61
2021/07/27 00:42:10;;;;;;;6.85;2.33;;;23.80;58.10;;;;;;4862653;29;20382;-60
2021/07/27 00:44:36;;;;;;;6.18;2.10;;;23.80;58.10;;;;;;4863848;29;20490;-60
2021/07/27 00:47:01;;;;;;;8.57;2.42;;;23.80;58.10;;;;;;4863817;29;20068;-60
2021/07/27 00:49:27;;;;;;;7.05;2.40;;;23.80;58.10;;;;;;4863752;29;20123;-60
2021/07/27 00:51:52;;;;;;;7.25;2.75;;;23.80;58.20;;;;;;4863903;29;20025;-60
2021/07/27 00:54:18;;;;;;;9.07;2.90;;;23.80;58.10;;;;;;4863624;29;20489;-60
2021/07/27 00:56:43;;;;;;;6.65;2.30;;;23.80;58.20;;;;;;4863643;29;20034;-60
2021/07/27 00:59:09;;;;;;;7.15;2.33;;;23.80;58.20;;;;;;4863567;29;20125;-60
2021/07/27 01:01:35;;;;;;;6.57;2.35;;;23.80;58.20;;;;;;4862316;29;20026;-61
2021/07/27 01:04:00;;;;;;;7.47;2.50;;;23.80;58.20;;;;;;4863271;29;20042;-60
2021/07/27 01:06:26;;;;;;;6.70;2.65;;;23.70;58.20;;;;;;4863496;29;20030;-60
2021/07/27 01:08:53;;;;;;;9.95;2.70;;;23.80;58.20;;;;;;4863446;29;20419;-60
2021/07/27 01:11:23;;;;;;;7.40;2.33;;;23.70;58.20;;;;;;4863455;29;20029;-60
2021/07/27 01:13:48;;;;;;;6.38;2.58;;;23.70;58.20;;;;;;4863377;29;20036;-60
2021/07/27 01:16:14;;;;;;;7.80;2.40;;;23.70;58.20;;;;;;4863439;29;20034;-60
2021/07/27 01:18:48;;;;;;;5.40;2.25;;;23.70;58.30;;;;;;4863505;29;20074;-60
2021/07/27 01:38:16;;;;;;;8.50;2.75;;;23.70;58.40;;;;;;4863043;29;20033;-60
2021/07/27 01:43:20;;;;;;;7.45;2.80;;;23.60;58.40;;;;;;4862961;29;20026;-61
2021/07/27 01:45:46;;;;;;;6.45;2.10;;;23.60;58.50;;;;;;4862814;29;20033;-60
2021/07/27 01:48:12;;;;;;;6.32;2.65;;;23.60;58.50;;;;;;4862841;29;20074;-59
2021/07/27 01:50:39;;;;;;;5.72;2.20;;;23.60;58.40;;;;;;4862724;29;20105;-58
2021/07/27 01:53:05;;;;;;;6.45;2.55;;;23.60;58.50;;;;;;4862683;29;20505;-60
2021/07/27 01:55:34;;;;;;;5.40;2.25;;;23.60;58.50;;;;;;4862599;29;20065;-58
2021/07/27 01:58:04;;;;;;;6.72;2.25;;;23.60;58.50;;;;;;4862599;29;20478;-60
2021/07/27 02:00:32;;;;;;;4.85;2.22;;;23.60;58.50;;;;;;4862528;29;20025;-62
2021/07/27 02:02:57;;;;;;;7.18;2.15;;;23.60;58.60;;;;;;4862271;29;20557;-60
2021/07/27 02:05:22;;;;;;;7.70;2.60;;;23.60;58.60;;;;;;4861279;29;20165;-60
2021/07/27 02:07:56;;;;;;;7.55;2.20;;;23.50;58.60;;;;;;4861208;29;20029;-60
2021/07/27 02:10:22;;;;;;;8.65;2.75;;;23.60;58.60;;;;;;4862667;29;20033;-58
2021/07/27 02:12:54;;;;;;;8.48;2.58;;;23.50;58.60;;;;;;4862542;29;20374;-59
2021/07/27 02:15:21;;;;;;;7.40;2.53;;;23.60;58.60;;;;;;4862211;29;20045;-60
2021/07/27 02:17:47;;;;;;;5.40;2.28;;;23.50;58.70;;;;;;4862215;29;20073;-60
2021/07/27 02:20:14;;;;;;;8.95;2.55;;;23.50;58.60;;;;;;4862401;29;20040;-59
2021/07/27 02:22:40;;;;;;;5.57;2.42;;;23.50;58.60;;;;;;4862150;29;20045;-58
2021/07/27 02:25:07;;;;;;;6.68;2.22;;;23.50;58.70;;;;;;4860839;29;20486;-60
2021/07/27 02:27:33;;;;;;;7.22;2.50;;;23.50;58.70;;;;;;4862048;29;20041;-60
2021/07/27 02:30:06;;;;;;;7.03;2.00;;;23.50;58.70;;;;;;4862038;29;20094;-60
2021/07/27 02:32:33;;;;;;;5.10;2.00;;;23.50;58.70;;;;;;4862135;29;20065;-60
2021/07/27 02:34:58;;;;;;;7.75;2.30;;;23.50;58.70;;;;;;4862114;29;20372;-60
2021/07/27 02:37:24;;;;;;;5.25;2.15;;;23.50;58.70;;;;;;4861910;29;20542;-60
2021/07/27 02:39:49;;;;;;;7.25;2.42;;;23.50;58.80;;;;;;4861790;29;20041;-60
2021/07/27 02:42:15;;;;;;;7.40;2.55;;;23.50;58.80;;;;;;4862059;29;20029;-60
2021/07/27 02:44:40;;;;;;;5.30;1.95;;;23.50;58.80;;;;;;4861808;29;20112;-60
2021/07/27 02:47:06;;;;;;;6.88;2.60;;;23.50;58.90;;;;;;4861797;29;20375;-60
2021/07/27 02:49:31;;;;;;;7.38;2.10;;;23.40;58.90;;;;;;4861704;29;20037;-60
2021/07/27 02:51:57;;;;;;;4.07;1.90;;;23.40;58.90;;;;;;4861426;29;20474;-60
2021/07/27 02:54:22;;;;;;;5.45;2.03;;;23.50;58.90;;;;;;4861435;29;20038;-60
2021/07/27 02:56:48;;;;;;;4.65;2.17;;;23.40;58.90;;;;;;4861566;29;20056;-60
2021/07/27 02:59:14;;;;;;;4.15;1.75;;;23.40;59.00;;;;;;4861506;29;20505;-60
2021/07/27 03:01:39;;;;;;;5.10;2.00;;;23.40;59.00;;;;;;4861652;29;20112;-60
2021/07/27 03:04:05;;;;;;;5.70;2.30;;;23.40;59.00;;;;;;4861255;29;20056;-60
2021/07/27 03:06:31;;;;;;;9.02;2.50;;;23.40;59.00;;;;;;4861353;29;20041;-60
2021/07/27 03:11:24;;;;;;;6.63;2.30;;;23.40;59.00;;;;;;4861595;29;20032;-60
2021/07/27 03:13:51;;;;;;;6.22;2.40;;;23.40;59.00;;;;;;4861222;29;20036;-60
2021/07/27 03:16:19;;;;;;;4.53;1.88;;;23.40;59.00;;;;;;4861152;29;20106;-60
2021/07/27 03:18:47;;;;;;;6.72;2.25;;;23.40;59.00;;;;;;4861254;29;20017;-60
2021/07/27 03:21:21;;;;;;;6.85;2.80;;;23.40;59.10;;;;;;4861232;29;20026;-60
2021/07/27 03:23:47;;;;;;;8.23;2.17;;;23.40;59.00;;;;;;4861215;29;20130;-60
2021/07/27 03:26:13;;;;;;;4.90;2.33;;;23.40;59.00;;;;;;4861129;29;20030;-60
2021/07/27 03:28:42;;;;;;;5.88;2.47;;;23.40;59.00;;;;;;4861055;29;20089;-60
2021/07/27 03:31:07;;;;;;;4.80;2.20;;;23.40;59.00;;;;;;4861018;29;20537;-60
2021/07/27 03:33:33;;;;;;;6.32;2.50;;;23.40;59.10;;;;;;4860993;29;20120;-60
2021/07/27 03:35:59;;;;;;;4.95;2.65;;;23.40;59.10;;;;;;4860769;29;20125;-61
2021/07/27 03:38:24;;;;;;;8.27;1.90;;;23.40;59.10;;;;;;4860968;29;20033;-60
2021/07/27 03:40:50;;;;;;;6.40;2.15;;;23.40;59.10;;;;;;4861109;29;20100;-61
2021/07/27 03:43:15;;;;;;;4.60;2.17;;;23.30;59.20;;;;;;4859635;29;20025;-61
2021/07/27 03:45:41;;;;;;;6.72;2.35;;;23.40;59.10;;;;;;4860784;29;20033;-60
2021/07/27 03:48:06;;;;;;;5.70;2.65;;;23.40;59.20;;;;;;4860781;29;20056;-60
2021/07/27 03:50:32;;;;;;;4.93;2.25;;;23.30;59.10;;;;;;4860731;29;20033;-60
2021/07/27 03:52:57;;;;;;;5.80;2.10;;;23.30;59.20;;;;;;4860743;29;20036;-60
2021/07/27 03:55:23;;;;;;;4.80;1.95;;;23.30;59.20;;;;;;4860633;29;20038;-60
2021/07/27 03:57:55;;;;;;;5.38;2.15;;;23.40;59.20;;;;;;4859477;29;20498;-60
2021/07/27 04:00:23;;;;;;;5.68;2.53;;;23.30;59.30;;;;;;4860678;29;20040;-60
2021/07/27 04:02:48;;;;;;;6.80;2.65;;;23.30;59.30;;;;;;4861030;29;20508;-60
2021/07/27 04:05:14;;;;;;;5.47;2.50;;;23.30;59.30;;;;;;4866460;29;20117;-60
2021/07/27 04:07:43;;;;;;;4.97;2.08;;;23.30;59.40;;;;;;4867034;29;20033;-60
2021/07/27 04:10:09;;;;;;;5.65;1.83;;;23.20;59.30;;;;;;4866777;29;20030;-60
2021/07/27 04:12:35;;;;;;;5.88;2.40;;;23.30;59.40;;;;;;4866738;29;20116;-60
2021/07/27 04:15:01;;;;;;;6.32;2.53;;;23.30;59.40;;;;;;4866726;29;20029;-60
2021/07/27 04:17:26;;;;;;;4.10;2.00;;;23.30;59.40;;;;;;4866616;29;20038;-60
2021/07/27 04:19:53;;;;;;;4.32;2.08;;;23.30;59.50;;;;;;4866669;29;20048;-60
2021/07/27 04:22:19;;;;;;;5.03;2.30;;;23.20;59.50;;;;;;4866634;29;20021;-60
2021/07/27 04:24:44;;;;;;;6.50;1.95;;;23.20;59.50;;;;;;4866676;29;20493;-60
2021/07/27 04:27:10;;;;;;;6.88;2.22;;;23.30;59.50;;;;;;4866736;29;20394;-60
2021/07/27 04:29:35;;;;;;;5.28;2.25;;;23.30;59.50;;;;;;4866685;29;20033;-60
2021/07/27 04:32:01;;;;;;;4.63;2.00;;;23.20;59.50;;;;;;4866558;29;20109;-60
2021/07/27 04:34:26;;;;;;;6.68;2.53;;;23.20;59.50;;;;;;4866449;29;20052;-60
2021/07/27 04:36:52;;;;;;;5.90;2.55;;;23.20;59.40;;;;;;4866821;29;20055;-60
2021/07/27 04:39:18;;;;;;;5.68;2.15;;;23.20;59.50;;;;;;4866535;29;20025;-60
2021/07/27 04:41:43;;;;;;;6.03;2.40;;;23.20;59.50;;;;;;4866476;29;20030;-60
2021/07/27 04:44:09;;;;;;;5.78;2.60;;;23.20;59.50;;;;;;4866480;29;20030;-59
2021/07/27 04:46:36;;;;;;;7.07;2.25;;;23.20;59.50;;;;;;4865211;29;20029;-60
2021/07/27 04:49:01;;;;;;;5.18;2.25;;;23.20;59.50;;;;;;4866356;29;20029;-60
2021/07/27 04:51:28;;;;;;;7.18;2.50;;;23.20;59.50;;;;;;4866415;29;20029;-60
2021/07/27 04:53:58;;;;;;;5.05;2.17;;;23.20;59.50;;;;;;4866354;29;20052;-60
2021/07/27 04:56:25;;;;;;;6.15;2.40;;;23.30;59.50;;;;;;4866326;29;20037;-62
2021/07/27 04:58:51;;;;;;;6.65;2.63;;;23.30;59.50;;;;;;4866311;29;20021;-60
2021/07/27 05:01:17;;;;;;;4.82;2.45;;;23.20;59.50;;;;;;4866313;29;20040;-60
2021/07/27 05:03:42;;;;;;;8.57;3.08;;;23.20;59.50;;;;;;4866114;29;20046;-60
2021/07/27 05:06:08;;;;;;;4.85;2.13;;;23.20;59.50;;;;;;4866282;29;20045;-60
2021/07/27 05:08:33;;;;;;;6.93;2.33;;;23.20;59.50;;;;;;4866313;29;20038;-60
2021/07/27 05:11:01;;;;;;;4.68;2.25;;;23.20;59.40;;;;;;4865014;29;20044;-60
2021/07/27 05:13:27;;;;;;;5.47;2.63;;;23.20;59.50;;;;;;4866187;29;20304;-59
2021/07/27 05:15:52;;;;;;;4.90;2.20;;;23.20;59.40;;;;;;4862736;29;20038;-59
2021/07/27 05:18:18;;;;;;;5.28;2.42;;;23.30;59.40;;;;;;4863271;29;20116;-60
2021/07/27 05:20:47;;;;;;;6.07;2.38;;;23.30;59.40;;;;;;4863228;29;20021;-59
2021/07/27 05:23:14;;;;;;;8.00;2.40;;;23.30;59.40;;;;;;4863246;29;20034;-59
2021/07/27 05:25:39;;;;;;;4.85;2.13;;;23.30;59.40;;;;;;4863176;29;20443;-60
2021/07/27 05:28:08;;;;;;;5.45;2.28;;;23.30;59.30;;;;;;4863258;29;20021;-60
2021/07/27 05:30:35;;;;;;;4.35;2.55;;;23.30;59.30;;;;;;4863002;29;20510;-59
2021/07/27 05:33:02;;;;;;;6.38;2.50;;;23.30;59.30;;;;;;4863041;29;20033;-59
2021/07/27 05:35:27;;;;;;;7.05;2.45;;;23.30;59.20;;;;;;4863037;29;20033;-60
2021/07/27 05:37:53;;;;;;;5.63;2.67;;;23.30;59.20;;;;;;4862985;29;20034;-59
2021/07/27 05:40:18;;;;;;;4.93;2.50;;;23.30;59.10;;;;;;4862921;29;20025;-59
2021/07/27 05:42:44;;;;;;;4.18;2.05;;;23.30;59.20;;;;;;4862852;29;20029;-59
2021/07/27 05:45:10;;;;;;;4.70;2.38;;;23.30;59.10;;;;;;4862780;29;20037;-59
2021/07/27 05:47:35;;;;;;;7.40;2.78;;;23.30;59.10;;;;;;4862773;29;20500;-59
2021/07/27 05:50:01;;;;;;;5.00;1.90;;;23.30;59.10;;;;;;4862711;29;20446;-59
2021/07/27 05:52:26;;;;;;;6.22;2.53;;;23.30;59.20;;;;;;4862750;29;20037;-59
2021/07/27 05:54:52;;;;;;;5.63;2.58;;;23.30;59.20;;;;;;4862527;29;20486;-60
2021/07/27 05:57:18;;;;;;;4.95;2.35;;;23.30;59.20;;;;;;4862640;29;20025;-60
2021/07/27 05:59:44;;;;;;;6.65;2.20;;;23.30;59.20;;;;;;4862587;29;20026;-60
2021/07/27 06:02:11;;;;;;;5.80;2.17;;;23.30;59.30;;;;;;4862385;29;20493;-60
2021/07/27 06:04:37;;;;;;;8.20;2.90;;;23.30;59.20;;;;;;4862669;29;20041;-60
2021/07/27 06:07:03;;;;;;;6.15;3.17;;;23.30;59.30;;;;;;4862458;29;20033;-60
2021/07/27 06:09:29;;;;;;;3.47;2.03;;;23.30;59.10;;;;;;4862394;29;20475;-59
2021/07/27 06:11:54;;;;;;;5.13;2.40;;;23.30;59.10;;;;;;4862368;29;20393;-60
2021/07/27 06:14:20;;;;;;;4.13;2.38;;;23.30;59.10;;;;;;4862274;29;20030;-58
2021/07/27 06:16:45;;;;;;;4.82;2.47;;;23.40;59.10;;;;;;4860850;29;20544;-59
2021/07/27 06:19:11;;;;;;;4.40;2.30;;;23.40;59.00;;;;;;4862149;29;20034;-59
2021/07/27 06:21:38;;;;;;;4.70;2.40;;;23.40;59.10;;;;;;4860993;29;20030;-58
2021/07/27 06:24:07;;;;;;;5.10;2.30;;;23.40;59.10;;;;;;4862148;29;20044;-58
2021/07/27 06:26:34;;;;;;;5.38;1.83;;;23.40;59.10;;;;;;4861565;29;20037;-58
2021/07/27 06:29:01;;;;;;;4.97;2.33;;;23.40;59.00;;;;;;4861935;29;20037;-59
2021/07/27 06:31:27;;;;;;;4.30;2.08;;;23.40;59.00;;;;;;4861930;29;20049;-59
2021/07/27 06:33:52;;;;;;;5.03;2.35;;;23.40;59.10;;;;;;4862185;29;20517;-58
2021/07/27 06:36:18;;;;;;;6.30;2.45;;;23.40;59.00;;;;;;4860544;29;20093;-58
2021/07/27 06:38:43;;;;;;;6.75;2.55;;;23.40;58.90;;;;;;4861916;29;20029;-59
2021/07/27 06:41:10;;;;;;;6.72;2.80;;;23.40;59.00;;;;;;4862088;29;20486;-59
2021/07/27 06:43:37;;;;;;;5.68;2.53;;;23.40;59.00;;;;;;4862010;29;20033;-59
2021/07/27 06:46:03;;;;;;;6.07;2.63;;;23.40;59.00;;;;;;4861724;29;20026;-59
2021/07/27 06:48:28;;;;;;;5.68;2.30;;;23.40;59.00;;;;;;4861533;29;20120;-59
2021/07/27 06:50:54;;;;;;;4.90;2.10;;;23.40;59.00;;;;;;4861590;29;20431;-59
2021/07/27 06:53:20;;;;;;;5.05;2.47;;;23.40;59.00;;;;;;4861492;29;20482;-58
2021/07/27 06:55:46;;;;;;;5.40;2.40;;;23.40;59.00;;;;;;4861392;29;20065;-59
2021/07/27 06:58:12;;;;;;;5.20;2.45;;;23.40;59.00;;;;;;4860153;29;20228;-59
2021/07/27 07:00:41;;;;;;;5.57;2.80;;;23.40;59.00;;;;;;4861286;29;20062;-60
2021/07/27 07:03:07;;;;;;;5.78;3.03;;;23.40;58.90;;;;;;4861179;29;20049;-59
2021/07/27 07:05:33;;;;;;;5.75;2.55;;;23.40;59.00;;;;;;4862002;29;20526;-59
2021/07/27 07:07:59;;;;;;;5.43;2.47;;;23.40;58.90;;;;;;4861395;29;20039;-59
2021/07/27 07:10:24;;;;;;;4.47;2.20;;;23.50;59.00;;;;;;4861127;29;20032;-59
2021/07/27 07:12:50;;;;;;;5.07;2.50;;;23.50;58.90;;;;;;4861126;29;20371;-58
2021/07/27 07:15:15;;;;;;;4.65;2.40;;;23.50;59.00;;;;;;4859893;29;20512;-59
2021/07/27 07:17:41;;;;;;;4.97;2.40;;;23.50;59.00;;;;;;4861153;29;20036;-59
2021/07/27 07:20:07;;;;;;;5.88;2.17;;;23.50;59.00;;;;;;4861383;29;20029;-59
2021/07/27 07:22:33;;;;;;;3.97;2.17;;;23.50;59.10;;;;;;4861006;29;20026;-59
2021/07/27 07:24:58;;;;;;;4.78;2.17;;;23.50;59.00;;;;;;4861042;29;20124;-61
2021/07/27 07:27:24;;;;;;;4.30;2.28;;;23.50;59.00;;;;;;4860981;29;20489;-60
2021/07/27 07:29:53;;;;;;;7.97;2.72;;;23.50;59.00;;;;;;4861007;29;20034;-60
2021/07/27 07:32:19;;;;;;;7.25;2.67;;;23.50;59.00;;;;;;4861198;29;20026;-60
2021/07/27 07:34:45;;;;;;;4.63;2.03;;;23.50;59.00;;;;;;4861094;29;20032;-60
2021/07/27 07:37:10;;;;;;;4.13;2.08;;;23.50;59.00;;;;;;4861215;29;20033;-59
2021/07/27 07:39:35;;;;;;;5.30;2.47;;;23.50;59.00;;;;;;4860152;29;20041;-58
2021/07/27 07:42:04;;;;;;;4.93;2.38;;;23.50;59.00;;;;;;4860755;29;20082;-58
2021/07/27 07:44:30;;;;;;;5.50;2.35;;;23.50;59.10;;;;;;4861002;29;20129;-58
2021/07/27 07:46:55;;;;;;;5.82;2.63;;;23.50;59.00;;;;;;4861004;29;20049;-60
2021/07/27 07:49:21;;;;;;;5.03;2.45;;;23.50;59.00;;;;;;4860760;29;20385;-59
2021/07/27 07:51:48;;;;;;;4.85;2.28;;;23.50;59.00;;;;;;4860717;29;20431;-61
2021/07/27 07:54:14;;;;;;;5.22;2.40;;;23.50;59.00;;;;;;4860635;29;20033;-61
2021/07/27 07:56:41;;;;;;;6.03;2.58;;;23.50;59.00;;;;;;4860517;29;20175;-60
2021/07/27 07:59:06;;;;;;;6.47;2.38;;;23.50;59.00;;;;;;4860848;29;20400;-59
2021/07/27 08:01:32;;;;;;;4.97;2.30;;;23.50;59.10;;;;;;4860459;29;20054;-60
2021/07/27 08:03:57;;;;;;;6.10;2.42;;;23.50;59.00;;;;;;4860445;29;20075;-60
2021/07/27 08:06:24;;;;;;;4.28;2.28;;;23.60;59.00;;;;;;4860501;29;20104;-59
2021/07/27 08:08:49;;;;;;;5.13;2.45;;;23.50;59.00;;;;;;4860514;29;20474;-60
2021/07/27 08:11:15;;;;;;;3.72;2.13;;;23.60;59.00;;;;;;4860429;29;20069;-59
2021/07/27 08:13:40;;;;;;;6.15;2.72;;;23.60;59.00;;;;;;4860398;29;20033;-59
2021/07/27 08:16:10;;;;;;;5.07;2.80;;;23.60;59.00;;;;;;4860345;29;20037;-59
2021/07/27 08:18:36;;;;;;;5.15;2.20;;;23.60;59.00;;;;;;4860407;29;20396;-58
2021/07/27 08:21:02;;;;;;;5.38;2.35;;;23.60;59.00;;;;;;4859204;29;20061;-60
2021/07/27 08:23:28;;;;;;;4.85;2.17;;;23.60;58.90;;;;;;4860332;29;20079;-61
2021/07/27 08:25:53;;;;;;;5.35;2.55;;;23.60;58.90;;;;;;4859108;29;20041;-60
2021/07/27 08:28:19;;;;;;;5.70;2.25;;;23.60;58.90;;;;;;4860376;29;20041;-60
2021/07/27 08:30:44;;;;;;;4.78;2.40;;;23.60;58.90;;;;;;4860344;29;20115;-60
2021/07/27 08:33:10;;;;;;;4.22;2.40;;;23.60;58.90;;;;;;4860207;29;20038;-60
2021/07/27 08:35:35;;;;;;;5.10;2.17;;;23.70;58.90;;;;;;4859906;29;20117;-58
2021/07/27 08:38:01;;;;;;;5.10;2.30;;;23.60;58.90;;;;;;4858718;29;20029;-59
2021/07/27 08:40:28;;;;;;;4.75;2.40;;;23.60;58.90;;;;;;4858886;29;20029;-60
2021/07/27 08:42:55;;;;;;;5.32;2.47;;;23.60;59.00;;;;;;4860099;29;20074;-60
2021/07/27 08:45:21;;;;;;;4.90;2.47;;;23.70;58.90;;;;;;4859993;29;20033;-60
2021/07/27 08:47:48;;;;;;;5.70;2.75;;;23.60;58.90;;;;;;4858817;29;20108;-58
2021/07/27 08:50:15;;;;;;;5.78;2.25;;;23.70;58.90;;;;;;4861816;29;20121;-59
2021/07/27 08:52:40;;;;;;;6.97;2.72;;;23.70;58.90;;;;;;4863665;29;20033;-60
2021/07/27 08:55:07;;;;;;;10.82;2.78;;;23.70;58.90;;;;;;4863792;29;20470;-60
2021/07/27 08:57:33;;;;;;;4.55;2.20;;;23.70;58.80;;;;;;4862342;29;20030;-60
2021/07/27 08:59:58;;;;;;;6.65;2.30;;;23.70;58.80;;;;;;4862368;29;20018;-60
2021/07/27 09:02:29;;;;;;;5.07;2.42;;;23.70;58.80;;;;;;4863567;29;20057;-61
2021/07/27 09:05:07;;;;;;;3.67;2.20;;;23.70;58.80;;;;;;4863523;29;20049;-60
2021/07/27 09:07:32;;;;;;;4.55;2.30;;;23.70;58.80;;;;;;4863284;29;20030;-60
2021/07/27 09:09:58;;;;;;;3.10;1.70;;;23.70;58.80;;;;;;4863234;29;20032;-60
2021/07/27 09:12:23;;;;;;;4.85;2.45;;;23.70;58.80;;;;;;4863617;29;20037;-61
2021/07/27 09:14:50;;;;;;;5.03;2.72;;;23.80;58.80;;;;;;4863437;29;20030;-60
2021/07/27 09:17:24;;;;;;;5.13;1.85;;;23.70;58.80;;;;;;4863124;29;20036;-60
2021/07/27 09:19:50;;;;;;;;;;;23.80;58.80;;;;;;4862197;29;20029;-60
2021/07/27 09:22:15;;;;;;;3.95;2.17;;;23.80;58.70;;;;;;4862986;29;19908;-60
2021/07/27 09:24:41;;;;;;;3.55;2.13;;;23.80;58.80;;;;;;4862937;29;20061;-60
2021/07/27 09:27:08;;;;;;;4.47;2.53;;;23.80;58.80;;;;;;4863084;29;20089;-60
2021/07/27 09:29:47;;;;;;;4.65;2.50;;;23.80;58.80;;;;;;4862933;29;20049;-60
2021/07/27 09:32:18;;;;;;;4.85;2.50;;;23.80;58.80;;;;;;4863017;29;20125;-60
2021/07/27 09:34:43;;;;;;;4.65;2.40;;;23.70;58.70;;;;;;4862774;29;20029;-60
2021/07/27 09:37:09;;;;;;;4.00;2.00;;;23.80;58.80;;;;;;4861570;29;20029;-60
2021/07/27 09:39:36;;;;;;;5.28;2.78;;;23.80;58.70;;;;;;4862890;29;20109;-61
2021/07/27 09:42:04;;;;;;;4.25;2.00;;;23.80;58.70;;;;;;4863602;29;20030;-60
2021/07/27 09:44:31;;;;;;;4.60;2.15;;;23.80;58.70;;;;;;4868942;29;20033;-59
2021/07/27 09:46:58;;;;;;;4.38;2.35;;;23.80;58.70;;;;;;4862760;29;20062;-59
2021/07/27 09:49:24;;;;;;;4.40;2.25;;;23.80;58.70;;;;;;4862480;29;20030;-59
2021/07/27 09:51:51;;;;;;;4.38;2.50;;;23.80;58.60;;;;;;4862623;29;20492;-59
2021/07/27 09:54:18;;;;;;;4.25;2.28;;;23.90;58.60;;;;;;4862391;29;20081;-59
2021/07/27 09:56:44;;;;;;;4.38;2.13;;;23.90;58.70;;;;;;4862446;29;20046;-59
2021/07/27 09:59:13;;;;;;;4.28;2.08;;;23.90;58.60;;;;;;4862524;29;20534;-60
2021/07/27 10:01:41;;;;;;;4.00;2.10;;;23.90;58.70;;;;;;4861593;29;20033;-59
2021/07/27 10:04:07;;;;;;;5.07;2.25;;;23.90;58.50;;;;;;4862191;29;20121;-59
2021/07/27 10:06:36;;;;;;;4.47;2.38;;;23.90;58.60;;;;;;4862361;29;20471;-60
2021/07/27 10:09:03;;;;;;;2.97;1.92;;;23.90;58.60;;;;;;4862286;29;20580;-60
2021/07/27 10:11:41;;;;;;;3.55;1.95;;;23.90;58.60;;;;;;4862404;29;20062;-59
2021/07/27 10:14:09;;;;;;;5.80;2.92;;;23.90;58.70;;;;;;4862357;29;20415;-60
2021/07/27 10:16:35;;;;;;;5.32;2.50;;;23.90;58.60;;;;;;4862435;29;20044;-60
2021/07/27 10:19:38;;;;;;;4.95;2.58;;;23.90;58.60;;;;;;4862117;29;20037;-59
2021/07/27 10:22:07;;;;;;;4.60;2.40;;;23.90;58.70;;;;;;4855604;29;20037;-59
2021/07/27 10:24:45;;;;;;;4.70;2.40;;;23.90;58.70;;;;;;4861897;29;20036;-60
2021/07/27 10:27:19;;;;;;;4.65;2.50;;;23.90;58.70;;;;;;4861811;29;20026;-59
2021/07/27 10:29:45;;;;;;;4.97;2.70;;;24.00;58.60;;;;;;4861957;29;20069;-58
2021/07/27 10:32:12;;;;;;;5.85;2.67;;;24.00;58.50;;;;;;4861814;29;20098;-58
2021/07/27 10:34:40;;;;;;;4.25;2.20;;;24.00;58.60;;;;;;4861739;29;20033;-58
2021/07/27 10:37:11;;;;;;;4.00;2.13;;;24.00;58.60;;;;;;4862041;29;20101;-58
2021/07/27 10:39:55;;;;;;;4.75;2.25;;;24.00;58.60;;;;;;4862268;29;20064;-60
2021/07/27 10:42:22;;;;;;;4.47;2.22;;;24.00;58.50;;;;;;4869967;29;20030;-59
2021/07/27 10:44:49;;;;;;;4.50;2.17;;;24.00;58.50;;;;;;4868754;29;20096;-60
2021/07/27 10:47:22;;;;;;;4.65;2.17;;;24.00;58.50;;;;;;4862346;29;20041;-59
2021/07/27 10:50:06;;;;;;;4.07;2.13;;;24.00;58.60;;;;;;4861592;29;20485;-59
2021/07/27 10:52:32;;;;;;;4.75;2.40;;;24.00;58.60;;;;;;4861716;29;20046;-59
2021/07/27 10:54:59;;;;;;;5.45;2.45;;;24.00;58.60;;;;;;4861509;29;20034;-59
2021/07/27 10:57:34;;;;;;;4.93;2.42;;;24.00;58.60;;;;;;4861443;29;20037;-59
2021/07/27 11:00:00;;;;;;;4.97;2.55;;;24.00;58.60;;;;;;4861480;29;20025;-59
2021/07/27 11:02:25;;;;;;;4.60;2.30;;;24.00;58.60;;;;;;4861264;29;20072;-59
2021/07/27 11:04:51;;;;;;;6.30;2.58;;;24.00;58.60;;;;;;4861445;29;20096;-59
2021/07/27 11:07:18;;;;;;;3.78;2.35;;;24.00;58.60;;;;;;4861314;29;20038;-60
2021/07/27 11:09:54;;;;;;;5.18;2.30;;;24.00;58.60;;;;;;4861239;29;20167;-60
2021/07/27 11:12:38;;;;;;;4.15;2.38;;;24.00;58.70;;;;;;4861046;29;20041;-60
2021/07/27 11:15:13;;;;;;;;;;;24.00;58.60;;;;;;4861533;29;20029;-59
2021/07/27 11:18:02;;;;;;;;;;;24.00;58.60;;;;;;4861580;29;19908;-59
2021/07/27 11:20:33;;;;;;;4.15;2.25;;;24.00;58.60;;;;;;4860929;29;19915;-59
2021/07/27 11:23:10;;;;;;;4.32;2.15;;;24.00;58.60;;;;;;4859763;29;20033;-59
2021/07/27 11:25:36;;;;;;;3.63;2.22;;;24.00;58.60;;;;;;4860961;29;20029;-59
2021/07/27 11:28:12;;;;;;;4.57;2.40;;;24.00;58.60;;;;;;4860865;29;20085;-60
2021/07/27 11:30:38;;;;;;;3.75;2.15;;;24.00;58.60;;;;;;4860961;29;20065;-60
2021/07/27 11:33:11;;;;;;;4.50;2.30;;;24.00;58.70;;;;;;4861244;29;20033;-60
2021/07/27 11:35:48;;;;;;;5.28;2.60;;;24.00;58.60;;;;;;4860788;29;20041;-60
2021/07/27 11:38:25;;;;;;;3.65;2.15;;;24.00;58.70;;;;;;4860752;29;20453;-60
2021/07/27 11:41:08;;;;;;;5.13;2.58;;;24.00;58.70;;;;;;4860919;29;20030;-59
2021/07/27 11:43:36;;;;;;;4.70;2.33;;;24.00;58.60;;;;;;4860837;29;20033;-60
2021/07/27 11:46:12;;;;;;;5.47;2.80;;;24.00;58.70;;;;;;4860791;29;20278;-60
2021/07/27 11:48:54;;;;;;;5.15;2.22;;;24.00;58.70;;;;;;4861155;29;20033;-59
2021/07/27 11:51:32;;;;;;;5.57;2.53;;;24.00;58.70;;;;;;4860673;29;20478;-59
2021/07/27 11:53:58;;;;;;;3.90;2.33;;;24.00;58.80;;;;;;4860515;29;20038;-58
2021/07/27 11:56:24;;;;;;;3.70;1.60;;;24.00;58.80;;;;;;4860425;29;20041;-60
2021/07/27 11:59:04;;;;;;;4.60;2.22;;;24.00;58.90;;;;;;4860919;29;20077;-58
2021/07/27 12:01:43;;;;;;;4.10;2.13;;;24.00;58.80;;;;;;4860640;29;20025;-58
2021/07/27 12:04:10;;;;;;;5.03;2.75;;;24.00;58.80;;;;;;4860500;29;20136;-58
2021/07/27 12:06:51;;;;;;;5.03;2.47;;;24.00;58.80;;;;;;4860720;29;20037;-58
2021/07/27 12:09:20;;;;;;;4.70;2.60;;;23.90;58.80;;;;;;4860626;29;20450;-58
2021/07/27 12:11:45;;;;;;;4.47;2.03;;;24.00;58.80;;;;;;4860509;29;20022;-59
2021/07/27 12:14:11;;;;;;;4.43;2.33;;;24.00;58.80;;;;;;4860599;29;20032;-58
2021/07/27 12:16:37;;;;;;;4.63;2.25;;;24.00;58.80;;;;;;4860537;29;20049;-58
2021/07/27 12:19:04;;;;;;;5.82;2.70;;;24.00;58.70;;;;;;4860380;29;20030;-59
2021/07/27 12:21:29;;;;;;;4.05;2.33;;;24.00;58.70;;;;;;4860577;29;20033;-59
2021/07/27 12:23:55;;;;;;;6.30;2.67;;;24.00;58.70;;;;;;4866285;29;20034;-59
2021/07/27 12:26:20;;;;;;;5.18;2.40;;;24.00;58.70;;;;;;4864211;29;20034;-59
2021/07/27 12:28:46;;;;;;;3.75;2.30;;;24.00;58.70;;;;;;4864611;29;20102;-59
2021/07/27 12:31:11;;;;;;;4.75;2.42;;;24.10;58.70;;;;;;4864858;29;20026;-59
2021/07/27 12:33:38;;;;;;;3.95;2.50;;;24.10;58.70;;;;;;4864919;29;20039;-59
2021/07/27 12:36:04;;;;;;;4.40;2.17;;;24.00;58.80;;;;;;4864482;29;20034;-59
2021/07/27 12:38:30;;;;;;;5.35;2.70;;;24.00;58.80;;;;;;4863436;29;20430;-59
2021/07/27 12:40:56;;;;;;;3.47;2.15;;;24.00;58.80;;;;;;4864530;29;20025;-59
2021/07/27 12:43:22;;;;;;;3.70;2.22;;;24.10;58.60;;;;;;4864134;29;20044;-59
2021/07/27 12:45:48;;;;;;;4.53;2.50;;;24.20;58.50;;;;;;4864094;29;20026;-59
2021/07/27 12:48:14;;;;;;;4.65;2.28;;;24.20;58.50;;;;;;4863745;29;20498;-59
2021/07/27 12:50:40;;;;;;;4.20;2.25;;;24.20;58.50;;;;;;4863734;29;20113;-59
2021/07/27 12:53:05;;;;;;;5.00;2.50;;;24.30;58.30;;;;;;4862470;29;20116;-59
2021/07/27 12:55:32;;;;;;;4.25;2.70;;;24.30;58.40;;;;;;4862667;29;20033;-59
2021/07/27 12:58:00;;;;;;;4.35;2.25;;;24.30;58.40;;;;;;4863654;29;20025;-59
2021/07/27 13:00:25;;;;;;;3.92;2.08;;;24.30;58.40;;;;;;4863429;29;20559;-60
2021/07/27 13:02:51;;;;;;;4.50;2.28;;;24.40;58.30;;;;;;4863311;29;20121;-59
2021/07/27 13:05:16;;;;;;;6.10;2.67;;;24.40;58.30;;;;;;4863424;29;20032;-59
2021/07/27 13:07:42;;;;;;;4.82;2.30;;;24.40;58.30;;;;;;4863252;29;20041;-60
2021/07/27 13:10:08;;;;;;;3.90;2.20;;;24.30;58.30;;;;;;4863307;29;20394;-58